Time;durP1;ratioP1;P1;durP2;ratioP2;P2;SDS_P1;SDS_P2;PMS_P1;PMS_P2;Temp;Humidity;BMP_temperature;BMP_pressure;BME280_temperature;BME280_humidity;BME280_pressure;Samples;Min_cycle;Max_cycle;Signal;HPM_P1;HPM_P2
2024/02/24 00:03:08;;;;;;;9.78;2.87;;;;;;;7.16;100.00;99222.57;5134262;55;1138836;-84
2024/02/24 00:08:14;;;;;;;5.03;1.83;;;;;;;7.21;100.00;99220.37;5132989;56;1136472;-84
2024/02/24 00:13:19;;;;;;;10.07;2.37;;;;;;;7.22;100.00;99214.63;5112853;56;1136361;-84
2024/02/24 00:18:25;;;;;;;20.53;9.67;;;;;;;7.19;100.00;99214.88;5112074;56;1138305;-84
2024/02/24 00:23:30;;;;;;;24.87;11.20;;;;;;;7.18;100.00;99214.05;5132339;56;1138524;-84
2024/02/24 00:28:36;;;;;;;33.80;13.13;;;;;;;7.18;100.00;99207.98;5093163;56;1140684;-84
2024/02/24 00:33:42;;;;;;;8.97;3.23;;;;;;;7.24;100.00;99195.13;5112634;56;1140895;-85
2024/02/24 00:38:47;;;;;;;4.90;1.90;;;;;;;7.25;100.00;99195.48;5133592;56;1136591;-84
2024/02/24 00:43:53;;;;;;;1.85;1.37;;;;;;;7.20;100.00;99182.37;5108395;56;1136618;-85
2024/02/24 00:48:58;;;;;;;9.53;4.87;;;;;;;7.20;100.00;99176.63;5095290;55;1136677;-85
2024/02/24 00:54:04;;;;;;;4.70;2.53;;;;;;;7.09;100.00;99153.53;5048289;56;1134534;-84
2024/02/24 00:59:10;;;;;;;14.18;6.15;;;;;;;6.98;100.00;99145.25;5070431;56;1136518;-84
2024/02/24 01:04:15;;;;;;;14.17;6.57;;;;;;;6.96;100.00;99130.92;5061778;56;1138686;-83
2024/02/24 01:09:22;;;;;;;11.03;4.57;;;;;;;6.89;100.00;99120.56;5039369;56;1138725;-85
2024/02/24 01:14:27;;;;;;;5.53;1.97;;;;;;;6.94;100.00;99109.67;5110477;56;1138678;-84
2024/02/24 01:19:33;;;;;;;6.50;1.93;;;;;;;6.89;100.00;99119.73;5108178;56;1136791;-84
2024/02/24 01:24:38;;;;;;;4.20;1.60;;;;;;;6.91;100.00;99136.20;5113728;56;1136921;-85
2024/02/24 01:29:44;;;;;;;5.87;2.35;;;;;;;6.97;100.00;99135.70;5132780;56;1136600;-84
2024/02/24 01:34:49;;;;;;;6.55;2.67;;;;;;;6.95;100.00;99112.17;5108837;56;1136528;-85
2024/02/24 01:39:55;;;;;;;14.67;4.40;;;;;;;6.93;100.00;99117.20;5108730;56;1136579;-85
2024/02/24 01:45:02;;;;;;;15.93;5.10;;;;;;;6.95;100.00;99102.14;5088115;55;1138723;-85
2024/02/24 01:50:15;;;;;;;13.57;4.13;;;;;;;6.93;100.00;99091.75;5047831;57;1138993;-84
2024/02/24 01:55:19;;;;;;;15.63;6.50;;;;;;;6.92;100.00;99080.05;5051799;56;1138745;-84
2024/02/24 02:00:24;;;;;;;12.80;6.00;;;;;;;6.93;100.00;99070.72;5098732;56;1138616;-85
2024/02/24 02:05:30;;;;;;;109.97;47.07;;;;;;;6.77;100.00;99061.17;5057530;57;1138720;-84
2024/02/24 02:10:55;;;;;;;21.07;7.83;;;;;;;6.63;100.00;99049.20;5090817;56;1142778;-84
2024/02/24 02:16:01;;;;;;;11.73;5.57;;;;;;;6.60;100.00;99036.80;5141803;56;1138637;-85
2024/02/24 02:21:08;;;;;;;7.17;3.60;;;;;;;6.55;100.00;99046.41;5122329;56;1138944;-84
2024/02/24 02:26:14;;;;;;;7.65;3.17;;;;;;;6.48;100.00;99035.22;5122361;56;1136442;-85
2024/02/24 02:31:20;;;;;;;3.80;2.70;;;;;;;6.46;100.00;99036.66;5142513;56;1136421;-84
2024/02/24 02:36:26;;;;;;;2.17;2.03;;;;;;;6.47;100.00;99041.44;5122654;56;1136211;-82
2024/02/24 02:41:32;;;;;;;4.92;3.17;;;;;;;6.48;100.00;99033.43;5110661;55;1137165;-82
2024/02/24 02:46:38;;;;;;;6.08;3.45;;;;;;;6.50;100.00;99026.26;5065050;57;1136808;-82
2024/02/24 02:51:44;;;;;;;4.35;2.58;;;;;;;6.56;100.00;99013.93;5057484;56;1136703;-82
2024/02/24 02:56:49;;;;;;;1.80;1.50;;;;;;;6.60;100.00;99005.28;5060106;56;1136493;-82
2024/02/24 03:01:57;;;;;;;3.27;1.80;;;;;;;6.49;100.00;99006.20;5116839;56;1136936;-82
2024/02/24 03:07:02;;;;;;;1.60;1.50;;;;;;;6.46;100.00;98972.32;5146301;56;1136546;-82
2024/02/24 03:12:08;;;;;;;2.27;1.40;;;;;;;6.43;100.00;98994.06;5141954;55;1136673;-82
2024/02/24 03:17:13;;;;;;;1.77;1.63;;;;;;;6.32;100.00;98994.50;5198264;55;1136468;-82
2024/02/24 03:22:19;;;;;;;2.97;1.30;;;;;;;6.23;100.00;98993.97;5157543;55;1137098;-81
2024/02/24 03:27:25;;;;;;;2.33;1.70;;;;;;;6.23;100.00;98983.95;5140369;55;1136519;-81
2024/02/24 03:32:30;;;;;;;1.43;1.33;;;;;;;6.23;100.00;98982.16;5197393;55;1136354;-82
2024/02/24 03:37:36;;;;;;;1.40;1.30;;;;;;;6.20;100.00;98986.83;5223826;55;1136259;-83
2024/02/24 03:42:41;;;;;;;1.43;1.33;;;;;;;6.13;100.00;98981.25;5216378;55;1137215;-81
2024/02/24 03:47:47;;;;;;;2.07;1.23;;;;;;;6.05;100.00;98970.58;5216748;55;1136877;-80
2024/02/24 03:52:53;;;;;;;1.77;1.40;;;;;;;6.00;100.00;98963.08;5236301;55;1136617;-82
2024/02/24 03:57:58;;;;;;;2.75;1.52;;;;;;;5.95;100.00;98948.22;5216024;55;1136388;-82
2024/02/24 04:03:04;;;;;;;2.33;1.70;;;;;;;5.93;100.00;98950.61;5157434;55;1136600;-82
2024/02/24 04:08:10;;;;;;;2.67;2.37;;;;;;;5.87;100.00;98959.78;5143352;56;1136683;-81
2024/02/24 04:13:15;;;;;;;2.43;1.30;;;;;;;5.85;100.00;98975.30;5167389;55;1136468;-82
2024/02/24 04:18:21;;;;;;;2.08;1.67;;;;;;;5.79;100.00;98958.77;5141773;56;1137001;-81
2024/02/24 04:23:26;;;;;;;1.27;1.10;;;;;;;5.83;100.00;98970.65;5142655;56;1136277;-82
2024/02/24 04:28:32;;;;;;;1.40;1.30;;;;;;;5.79;100.00;98956.14;5162408;55;1136256;-82
2024/02/24 04:33:38;;;;;;;3.03;1.40;;;;;;;5.76;100.00;98944.59;5065063;56;1136394;-82
2024/02/24 04:38:43;;;;;;;1.30;1.20;;;;;;;5.70;100.00;98941.98;5057021;56;1136677;-80
2024/02/24 04:43:49;;;;;;;1.22;1.12;;;;;;;5.61;100.00;98940.96;5078619;56;1136765;-81
2024/02/24 04:48:55;;;;;;;1.32;0.93;;;;;;;5.51;100.00;98935.27;5093302;56;1136723;-82
2024/02/24 04:54:00;;;;;;;1.47;1.37;;;;;;;5.35;100.00;98934.88;5058302;57;1134779;-81
2024/02/24 04:59:06;;;;;;;2.43;1.47;;;;;;;5.22;100.00;98946.81;5058230;55;1134929;-82
2024/02/24 05:04:11;;;;;;;1.40;0.93;;;;;;;5.12;100.00;98953.28;5101415;55;1135002;-82
2024/02/24 05:09:17;;;;;;;1.40;1.00;;;;;;;5.05;100.00;98948.64;5117693;56;1134832;-82
2024/02/24 05:14:22;;;;;;;2.30;1.57;;;;;;;5.00;100.00;98952.13;5122753;56;1134807;-81
2024/02/24 05:19:28;;;;;;;1.13;1.00;;;;;;;4.95;100.00;98957.72;5140906;56;1134752;-81
2024/02/24 05:24:34;;;;;;;0.80;0.80;;;;;;;4.87;100.00;98985.84;5123264;56;1134282;-82
2024/02/24 05:29:46;;;;;;;0.70;0.70;;;;;;;4.83;100.00;99000.13;5125053;55;1134720;-81
2024/02/24 05:34:52;;;;;;;0.50;0.50;;;;;;;4.77;100.00;99015.47;5195567;55;1134328;-82
2024/02/24 05:39:58;;;;;;;0.87;0.50;;;;;;;4.69;100.00;99004.77;5209287;55;1134785;-82
2024/02/24 05:45:04;;;;;;;0.50;0.40;;;;;;;4.66;100.00;99008.45;5160696;55;1134652;-80
2024/02/24 05:50:11;;;;;;;0.77;0.50;;;;;;;4.60;100.00;99018.09;5126710;55;1134815;-83
2024/02/24 05:55:16;;;;;;;2.33;1.52;;;;;;;4.60;100.00;99025.94;5148303;56;1136867;-80
2024/02/24 06:00:22;;;;;;;4.83;3.40;;;;;;;4.58;100.00;99039.14;5090210;55;1136746;-83
2024/02/24 06:05:28;;;;;;;4.07;1.70;;;;;;;4.58;100.00;99050.92;5043717;56;1136436;-81
2024/02/24 06:10:33;;;;;;;4.40;2.10;;;;;;;4.55;100.00;99053.80;5109014;55;1136337;-80
2024/02/24 06:15:39;;;;;;;2.83;1.83;;;;;;;4.52;100.00;99060.58;5078995;55;1136494;-81
2024/02/24 06:20:45;;;;;;;5.80;2.93;;;;;;;4.52;100.00;99063.67;5088249;55;1136696;-83
2024/02/24 06:25:50;;;;;;;4.00;2.33;;;;;;;4.53;100.00;99066.17;5085179;56;1136756;-84
2024/02/24 06:30:57;;;;;;;3.75;1.60;;;;;;;4.55;100.00;99070.83;5141129;56;1136963;-79
2024/02/24 06:36:04;;;;;;;1.57;1.00;;;;;;;4.56;100.00;99084.28;5130152;56;1136564;-81
2024/02/24 06:41:10;;;;;;;1.37;1.03;;;;;;;4.52;100.00;99106.39;5128139;56;1136540;-80
2024/02/24 06:46:16;;;;;;;1.53;1.10;;;;;;;4.49;100.00;99112.33;5059579;57;1136439;-80
2024/02/24 06:51:21;;;;;;;1.90;1.43;;;;;;;4.46;100.00;99113.39;5098751;56;1134208;-81
2024/02/24 06:56:27;;;;;;;2.13;1.50;;;;;;;4.44;100.00;99107.90;5122797;56;1136783;-84
2024/02/24 07:01:33;;;;;;;1.50;1.20;;;;;;;4.43;100.00;99126.70;5049025;56;1136851;-84
2024/02/24 07:06:38;;;;;;;1.37;1.27;;;;;;;4.38;100.00;99142.41;5068957;56;1136436;-82
2024/02/24 07:11:44;;;;;;;1.03;0.97;;;;;;;4.38;100.00;99142.41;5084513;56;1134708;-77
2024/02/24 07:16:50;;;;;;;1.10;0.80;;;;;;;4.43;100.00;99158.11;5113152;56;1134490;-76
2024/02/24 07:21:55;;;;;;;1.60;1.50;;;;;;;4.48;100.00;99160.39;5089852;55;1134638;-79
2024/02/24 07:27:01;;;;;;;1.83;0.80;;;;;;;4.48;100.00;99177.41;5062437;55;1134632;-80
2024/02/24 07:32:08;;;;;;;0.97;0.70;;;;;;;4.51;100.00;99197.66;5093888;55;1134986;-78
2024/02/24 07:37:13;;;;;;;1.30;0.70;;;;;;;4.55;100.00;99209.59;5088446;56;1134792;-83
2024/02/24 07:42:20;;;;;;;0.80;0.80;;;;;;;4.57;100.00;99216.86;5069087;56;1134226;-78
2024/02/24 07:47:25;;;;;;;1.00;1.00;;;;;;;4.64;100.00;99229.48;5112652;55;1136840;-83
2024/02/24 07:52:31;;;;;;;1.60;1.23;;;;;;;4.67;100.00;99237.95;5112976;55;1134619;-78
2024/02/24 07:57:36;;;;;;;1.43;1.27;;;;;;;4.67;100.00;99242.36;4991290;56;1134667;-83
2024/02/24 08:02:42;;;;;;;1.03;1.00;;;;;;;4.69;100.00;99251.77;4994684;56;1136567;-83
2024/02/24 08:07:47;;;;;;;2.57;1.37;;;;;;;4.75;100.00;99264.88;5193806;55;1136535;-79
2024/02/24 08:12:53;;;;;;;1.42;1.32;;;;;;;4.83;100.00;99268.61;5053851;55;1136948;-79
2024/02/24 08:17:59;;;;;;;1.00;1.00;;;;;;;4.87;100.00;99274.47;5001761;56;1136769;-76
2024/02/24 08:23:05;;;;;;;2.35;1.25;;;;;;;4.94;100.00;99276.51;5205211;55;1136550;-83
2024/02/24 08:28:13;;;;;;;1.00;0.80;;;;;;;5.06;100.00;99269.51;5090654;55;1136909;-79
2024/02/24 08:33:22;;;;;;;2.60;1.20;;;;;;;5.20;100.00;99276.33;5204989;55;1136542;-79
2024/02/24 08:38:27;;;;;;;1.20;1.00;;;;;;;5.44;100.00;99282.36;5220356;55;1136901;-78
2024/02/24 08:43:33;;;;;;;2.15;1.27;;;;;;;5.61;100.00;99293.71;5140564;55;1136675;-80
2024/02/24 08:48:38;;;;;;;1.13;1.03;;;;;;;5.85;100.00;99300.63;5255085;54;1136573;-73
2024/02/24 08:53:44;;;;;;;0.70;0.70;;;;;;;5.92;100.00;99321.55;5202780;55;1136415;-80
2024/02/24 08:58:51;;;;;;;0.60;0.60;;;;;;;5.86;100.00;99338.56;5056552;56;1136517;-79
2024/02/24 09:03:59;;;;;;;1.50;1.03;;;;;;;5.80;100.00;99348.23;5133323;55;1136643;-78
2024/02/24 09:09:07;;;;;;;1.00;0.80;;;;;;;5.84;100.00;99355.37;5049128;56;1136884;-79
2024/02/24 09:14:13;;;;;;;3.30;1.00;;;;;;;5.91;100.00;99364.02;5051178;56;1136728;-77
2024/02/24 09:19:19;;;;;;;2.60;0.93;;;;;;;5.92;100.00;99369.63;5077787;56;1136453;-80
2024/02/24 09:24:25;;;;;;;1.10;1.10;;;;;;;5.98;100.00;99375.69;5106563;56;1136553;-79
2024/02/24 09:29:30;;;;;;;2.00;1.80;;;;;;;6.11;100.00;99384.77;5134679;55;1137024;-80
2024/02/24 09:34:36;;;;;;;4.10;2.13;;;;;;;6.20;100.00;99397.20;5127754;56;1136745;-74
2024/02/24 09:39:43;;;;;;;2.20;1.90;;;;;;;6.33;100.00;99399.22;5054330;56;1136873;-79
2024/02/24 09:44:50;;;;;;;2.70;1.40;;;;;;;6.50;100.00;99411.04;5054647;56;1136444;-79
2024/02/24 09:49:57;;;;;;;3.07;2.40;;;;;;;6.67;100.00;99418.44;5055568;56;1136861;-78
2024/02/24 09:55:05;;;;;;;2.55;1.90;;;;;;;6.81;100.00;99434.89;5032994;56;1136756;-74
2024/02/24 10:00:12;;;;;;;1.70;1.27;;;;;;;6.89;100.00;99449.08;5049512;55;1136797;-72
2024/02/24 10:05:19;;;;;;;2.50;1.40;;;;;;;7.01;100.00;99457.81;5075552;55;1136808;-75
2024/02/24 10:10:28;;;;;;;7.17;3.77;;;;;;;7.11;100.00;99456.11;5162137;55;1136471;-76
2024/02/24 10:15:33;;;;;;;2.27;1.33;;;;;;;7.23;100.00;99452.96;5147609;55;1136591;-75
2024/02/24 10:20:39;;;;;;;20.70;5.20;;;;;;;7.36;100.00;99461.53;5178286;55;1136550;-73
2024/02/24 10:25:45;;;;;;;19.83;8.10;;;;;;;7.50;100.00;99478.34;5141576;55;1139213;-77
2024/02/24 10:30:51;;;;;;;3.43;1.80;;;;;;;7.72;100.00;99482.69;5163529;55;1138694;-82
2024/02/24 10:35:58;;;;;;;3.80;1.43;;;;;;;7.78;100.00;99494.52;5182216;55;1136462;-77
2024/02/24 10:41:04;;;;;;;8.10;1.90;;;;;;;7.89;100.00;99505.00;5194930;55;1138544;-78
2024/02/24 10:46:09;;;;;;;3.58;1.82;;;;;;;8.00;100.00;99516.30;5230985;55;1136759;-79
2024/02/24 10:51:15;;;;;;;6.60;3.17;;;;;;;8.14;100.00;99520.42;5230737;55;1136536;-83
2024/02/24 10:56:22;;;;;;;2.87;1.67;;;;;;;8.25;100.00;99538.78;5184532;55;1136862;-79
2024/02/24 11:01:27;;;;;;;4.43;2.23;;;;;;;8.20;100.00;99544.94;5142688;55;1136483;-80
2024/02/24 11:06:47;;;;;;;15.23;7.73;;;;;;;8.23;100.00;99543.86;5142623;55;1136343;-80
2024/02/24 11:11:52;;;;;;;6.33;1.93;;;;;;;8.36;100.00;99548.48;5134010;56;1138714;-79
2024/02/24 11:17:00;;;;;;;6.87;2.60;;;;;;;8.39;100.00;99547.75;5113090;56;1136622;-80
2024/02/24 11:22:07;;;;;;;4.87;2.83;;;;;;;8.47;100.00;99552.36;5113923;56;1136821;-80
2024/02/24 11:27:13;;;;;;;4.87;1.85;;;;;;;8.49;100.00;99566.24;5113701;56;1136566;-80
2024/02/24 11:32:18;;;;;;;10.23;3.50;;;;;;;8.64;100.00;99566.75;5133896;56;1136697;-80
2024/02/24 11:37:24;;;;;;;6.28;3.12;;;;;;;8.68;100.00;99576.08;5113757;56;1138718;-79
2024/02/24 11:42:32;;;;;;;12.90;4.70;;;;;;;8.73;100.00;99580.45;5113927;56;1136618;-79
2024/02/24 11:47:39;;;;;;;19.77;7.40;;;;;;;8.97;100.00;99581.02;5150832;55;1138572;-79
2024/02/24 11:52:45;;;;;;;10.07;4.37;;;;;;;9.27;100.00;99577.53;5140591;55;1138857;-78
2024/02/24 11:57:51;;;;;;;26.70;7.00;;;;;;;9.42;100.00;99583.27;5147370;55;1138750;-80
2024/02/24 12:02:56;;;;;;;11.90;4.72;;;;;;;9.54;100.00;99578.23;5162278;55;1138881;-78
2024/02/24 12:08:08;;;;;;;10.67;4.53;;;;;;;9.73;100.00;99580.08;5163008;56;1138717;-79
2024/02/24 12:13:15;;;;;;;16.27;4.35;;;;;;;9.94;100.00;99582.58;5140301;55;1138998;-80
2024/02/24 12:18:25;;;;;;;12.75;4.30;;;;;;;9.94;100.00;99597.11;5142954;56;1138999;-78
2024/02/24 12:23:31;;;;;;;14.60;4.70;;;;;;;9.85;100.00;99599.62;5163680;56;1138544;-78
2024/02/24 12:28:39;;;;;;;15.93;4.43;;;;;;;10.03;100.00;99598.95;5143379;56;1139139;-80
2024/02/24 12:33:46;;;;;;;18.00;5.47;;;;;;;10.29;100.00;99609.34;5160980;55;1140776;-79
2024/02/24 12:38:52;;;;;;;23.60;10.95;;;;;;;10.30;100.00;99613.66;5186976;55;1140671;-79
2024/02/24 12:43:57;;;;;;;6.97;3.10;;;;;;;10.21;100.00;99619.30;5170117;55;1142538;-80
2024/02/24 12:49:03;;;;;;;11.13;2.87;;;;;;;10.12;100.00;99624.53;5152016;55;1138486;-78
2024/02/24 12:54:11;;;;;;;8.50;3.70;;;;;;;10.10;100.00;99633.07;5154582;55;1140869;-78
2024/02/24 12:59:18;;;;;;;6.72;4.50;;;;;;;10.23;100.00;99646.91;5170079;55;1139069;-79
2024/02/24 13:04:23;;;;;;;12.47;3.97;;;;;;;10.47;100.00;99647.80;5154083;55;1138661;-80
2024/02/24 13:09:29;;;;;;;15.10;5.47;;;;;;;10.77;100.00;99646.32;5142761;56;1141039;-79
2024/02/24 13:14:34;;;;;;;19.53;12.40;;;;;;;10.92;100.00;99655.97;5162336;55;1140938;-78
2024/02/24 13:19:40;;;;;;;4.63;2.63;;;;;;;11.10;100.00;99666.66;5141080;55;1191171;-78
2024/02/24 13:24:46;;;;;;;5.40;2.17;;;;;;;11.24;100.00;99673.66;5144760;56;1138904;-78
2024/02/24 13:29:51;;;;;;;4.30;2.27;;;;;;;11.34;100.00;99671.45;5160745;56;1138759;-78
2024/02/24 13:34:57;;;;;;;3.83;2.63;;;;;;;11.40;100.00;99674.86;5135552;55;1138893;-78
2024/02/24 13:40:04;;;;;;;5.43;1.90;;;;;;;11.50;100.00;99683.10;5168497;56;1138613;-79
2024/02/24 13:45:10;;;;;;;4.92;2.08;;;;;;;11.49;100.00;99684.08;5168784;55;1138553;-77
2024/02/24 13:50:17;;;;;;;2.92;1.87;;;;;;;11.49;100.00;99693.34;5189358;55;1138558;-79
2024/02/24 13:55:24;;;;;;;4.03;2.00;;;;;;;11.52;100.00;99701.01;5128845;55;1138722;-79
2024/02/24 14:00:30;;;;;;;6.47;2.23;;;;;;;11.64;100.00;99705.14;5189144;55;1138947;-80
2024/02/24 14:05:36;;;;;;;3.83;2.07;;;;;;;11.74;100.00;99709.58;5139246;55;1138614;-77
2024/02/24 14:10:43;;;;;;;11.12;3.60;;;;;;;11.79;100.00;99712.14;5199748;55;1138584;-79
2024/02/24 14:15:49;;;;;;;4.50;2.83;;;;;;;11.80;100.00;99711.17;5207351;55;1245289;-79
2024/02/24 14:20:54;;;;;;;8.57;3.87;;;;;;;11.96;100.00;99715.34;5250632;55;1138731;-79
2024/02/24 14:26:00;;;;;;;5.23;2.67;;;;;;;12.00;100.00;99720.36;5224720;55;1175926;-80
2024/02/24 14:31:06;;;;;;;7.60;3.58;;;;;;;12.13;100.00;99716.38;5228677;55;1227674;-78
2024/02/24 14:36:12;;;;;;;28.98;15.65;;;;;;;12.26;100.00;99726.61;5147511;55;1220105;-79
2024/02/24 14:41:17;;;;;;;7.97;2.95;;;;;;;12.38;100.00;99733.86;5183391;55;1247092;-77
2024/02/24 14:46:23;;;;;;;12.07;4.50;;;;;;;12.27;100.00;99737.08;5141097;55;1243347;-78
2024/02/24 14:51:28;;;;;;;25.20;13.23;;;;;;;12.12;100.00;99758.44;5200519;55;1229110;-77
2024/02/24 14:56:34;;;;;;;145.47;69.63;;;;;;;12.12;100.00;99755.78;5193746;55;1239528;-76
2024/02/24 15:01:39;;;;;;;14.23;3.90;;;;;;;13.03;100.00;99741.94;5163221;55;1233974;-78
2024/02/24 15:06:47;;;;;;;12.67;4.63;;;;;;;13.77;100.00;99748.61;5128274;55;1253949;-78
2024/02/24 15:11:52;;;;;;;6.90;2.40;;;;;;;12.62;100.00;99772.09;5176537;56;1140509;-79
2024/02/24 15:16:58;;;;;;;11.57;6.17;;;;;;;12.62;100.00;99772.09;5135688;56;1244830;-78
2024/02/24 15:22:03;;;;;;;8.90;5.03;;;;;;;12.39;100.00;99788.56;5136094;56;1234261;-78
2024/02/24 15:27:09;;;;;;;26.00;11.93;;;;;;;12.98;100.00;99794.19;5132551;56;1245265;-78
2024/02/24 15:32:14;;;;;;;49.23;16.73;;;;;;;14.18;100.00;99795.69;5240401;55;1142950;-78
2024/02/24 15:37:20;;;;;;;53.43;20.50;;;;;;;14.41;100.00;99802.61;5238749;55;1142675;-80
2024/02/24 15:42:26;;;;;;;17.20;7.30;;;;;;;13.62;100.00;99805.48;5239266;55;1142856;-79
2024/02/24 15:47:31;;;;;;;9.50;4.53;;;;;;;13.09;100.00;99819.66;5172257;55;1140605;-81
2024/02/24 15:52:43;;;;;;;13.33;8.63;;;;;;;12.55;100.00;99818.77;5185444;55;1138869;-78
2024/02/24 15:57:50;;;;;;;16.30;8.90;;;;;;;12.12;100.00;99835.30;5172661;55;1141010;-78
2024/02/24 16:02:56;;;;;;;30.47;17.13;;;;;;;11.80;100.00;99842.31;5289230;55;1140976;-78
2024/02/24 16:08:01;;;;;;;11.83;7.53;;;;;;;11.49;100.00;99842.96;5214564;56;1142789;-77
2024/02/24 16:13:10;;;;;;;15.53;10.97;;;;;;;11.28;100.00;99852.89;5214596;56;1140321;-77
2024/02/24 16:18:15;;;;;;;8.43;5.77;;;;;;;11.05;100.00;99845.70;5218428;56;1143205;-77
2024/02/24 16:23:21;;;;;;;9.63;6.67;;;;;;;10.90;100.00;99851.05;5254416;56;1138519;-78
2024/02/24 16:28:27;;;;;;;5.22;3.37;;;;;;;10.75;100.00;99863.83;5234098;56;1138403;-77
2024/02/24 16:33:32;;;;;;;5.28;2.72;;;;;;;10.58;100.00;99866.64;5235300;55;1138230;-77
2024/02/24 16:38:38;;;;;;;4.72;3.17;;;;;;;10.48;100.00;99865.78;5255045;56;1138760;-77
2024/02/24 16:43:44;;;;;;;8.67;4.57;;;;;;;10.32;100.00;99879.98;5194210;55;1138536;-79
2024/02/24 16:48:52;;;;;;;24.83;16.80;;;;;;;10.13;100.00;99884.66;5134637;55;1138720;-79
2024/02/24 16:53:58;;;;;;;21.37;14.37;;;;;;;10.01;100.00;99890.16;5164322;55;1142692;-79
2024/02/24 16:59:03;;;;;;;37.07;22.77;;;;;;;9.88;100.00;99893.84;5145084;55;1142690;-79
2024/02/24 17:04:09;;;;;;;25.60;12.97;;;;;;;9.76;100.00;99886.96;5139713;55;1140390;-79
2024/02/24 17:09:15;;;;;;;61.87;34.37;;;;;;;9.67;100.00;99896.95;5139808;55;1140770;-79
2024/02/24 17:14:20;;;;;;;35.83;16.60;;;;;;;9.60;100.00;99897.61;5154426;55;1141030;-79
2024/02/24 17:19:26;;;;;;;18.42;9.35;;;;;;;9.51;100.00;99897.88;5131767;56;1138877;-79
2024/02/24 17:24:31;;;;;;;36.07;15.40;;;;;;;9.42;100.00;99903.45;5113702;56;1136633;-79
2024/02/24 17:29:37;;;;;;;13.20;7.37;;;;;;;9.35;100.00;99908.02;5133966;56;1138679;-78
2024/02/24 17:34:42;;;;;;;38.57;14.83;;;;;;;9.26;100.00;99902.20;5114023;55;1136370;-78
2024/02/24 17:39:48;;;;;;;85.57;31.73;;;;;;;9.18;100.00;99903.64;5113966;56;1138581;-79
2024/02/24 17:44:53;;;;;;;34.63;18.30;;;;;;;9.11;100.00;99913.52;5106064;56;1138481;-78
2024/02/24 17:50:01;;;;;;;89.13;42.20;;;;;;;9.02;100.00;99926.11;5102506;56;1138737;-79
2024/02/24 17:55:09;;;;;;;63.27;29.87;;;;;;;8.95;100.00;99936.81;5112056;56;1138787;-78
2024/02/24 18:00:16;;;;;;;23.77;10.70;;;;;;;8.88;100.00;99939.09;5134277;54;1138946;-78
2024/02/24 18:05:21;;;;;;;55.75;21.52;;;;;;;8.83;100.00;99948.34;5133841;56;1140398;-78
2024/02/24 18:10:27;;;;;;;50.23;20.05;;;;;;;8.83;100.00;99950.98;5113397;56;1140422;-78
2024/02/24 18:15:33;;;;;;;37.33;14.10;;;;;;;8.81;100.00;99955.05;5113173;56;1140897;-78
2024/02/24 18:20:39;;;;;;;17.23;9.50;;;;;;;8.75;100.00;99960.33;5128048;56;1140896;-77
2024/02/24 18:25:44;;;;;;;197.17;57.77;;;;;;;8.68;100.00;99962.26;5140401;56;1138693;-78
2024/02/24 18:30:50;;;;;;;100.87;30.90;;;;;;;8.61;100.00;99965.00;5141381;56;1140768;-79
2024/02/24 18:35:55;;;;;;;50.17;24.50;;;;;;;8.54;100.00;99975.68;5163553;55;1140945;-78
2024/02/24 18:41:01;;;;;;;20.60;12.27;;;;;;;8.44;100.00;99978.17;5143726;55;1138675;-78
2024/02/24 18:46:07;;;;;;;11.53;7.53;;;;;;;8.39;100.00;99994.36;5143518;56;1138986;-78
2024/02/24 18:51:12;;;;;;;12.27;6.37;;;;;;;8.30;100.00;99988.42;5057710;57;1136798;-78
2024/02/24 18:56:18;;;;;;;14.38;6.33;;;;;;;8.22;100.00;99998.73;5163881;56;1138516;-79
2024/02/24 19:01:23;;;;;;;16.87;9.10;;;;;;;8.15;100.00;99997.98;5039069;57;1138823;-79
2024/02/24 19:06:29;;;;;;;24.72;12.47;;;;;;;8.10;100.00;99997.00;5142930;56;1138653;-78
2024/02/24 19:11:34;;;;;;;26.30;15.60;;;;;;;8.05;100.00;100003.95;5163203;56;1140918;-77
2024/02/24 19:16:40;;;;;;;24.27;13.20;;;;;;;8.02;100.00;100018.66;5142326;56;1140860;-78
2024/02/24 19:21:46;;;;;;;39.07;20.50;;;;;;;7.96;100.00;100013.00;5142644;56;1140921;-78
2024/02/24 19:26:51;;;;;;;43.43;22.53;;;;;;;7.94;100.00;100008.34;5163010;56;1142782;-79
2024/02/24 19:31:57;;;;;;;19.97;11.70;;;;;;;7.92;100.00;100018.16;5141761;55;1142967;-78
2024/02/24 19:37:07;;;;;;;17.47;10.17;;;;;;;7.89;100.00;100011.80;5142582;55;1142981;-78
2024/02/24 19:42:10;;;;;;;19.10;11.00;;;;;;;7.86;100.00;100014.17;5142153;56;1142924;-78
2024/02/24 19:47:15;;;;;;;25.20;12.93;;;;;;;7.82;100.00;100018.45;5163004;56;1141332;-79
2024/02/24 19:52:23;;;;;;;28.30;11.48;;;;;;;7.74;100.00;100026.93;5142905;56;1141071;-78
2024/02/24 19:57:29;;;;;;;15.33;8.70;;;;;;;7.66;100.00;100020.90;5141996;56;1140929;-78
2024/02/24 20:02:35;;;;;;;18.53;8.03;;;;;;;7.66;100.00;100024.01;5225183;55;1140942;-78
2024/02/24 20:07:41;;;;;;;16.50;8.30;;;;;;;7.68;100.00;100026.05;5230905;55;1140852;-77
2024/02/24 20:12:46;;;;;;;16.47;9.60;;;;;;;7.67;100.00;100029.64;5230514;55;1140858;-78
2024/02/24 20:17:50;;;;;;;18.32;9.83;;;;;;;7.64;100.00;100035.12;5250768;55;1140691;-77
2024/02/24 20:22:58;;;;;;;34.65;14.33;;;;;;;7.59;100.00;100039.90;5202778;55;1138711;-78
2024/02/24 20:28:03;;;;;;;26.70;12.13;;;;;;;7.57;100.00;100034.74;5171994;55;1140755;-78
2024/02/24 20:33:08;;;;;;;30.57;12.83;;;;;;;7.59;100.00;100034.63;5133434;56;1142910;-78
2024/02/24 20:38:13;;;;;;;24.60;10.53;;;;;;;7.58;100.00;100044.32;5152205;56;1143321;-78
2024/02/24 20:43:18;;;;;;;18.70;8.97;;;;;;;7.58;100.00;100046.95;5133667;56;1141325;-78
2024/02/24 20:48:24;;;;;;;15.87;8.30;;;;;;;7.59;100.00;100053.05;5133504;56;1138920;-78
2024/02/24 20:53:28;;;;;;;34.23;15.23;;;;;;;7.55;100.00;100055.54;5154904;56;1139052;-77
2024/02/24 20:58:36;;;;;;;33.17;13.83;;;;;;;7.52;100.00;100061.86;5096077;56;1141113;-78
2024/02/24 21:03:40;;;;;;;23.83;10.43;;;;;;;7.48;100.00;100064.84;5068535;56;1140846;-80
2024/02/24 21:08:45;;;;;;;32.13;12.73;;;;;;;7.46;100.00;100067.58;5100746;56;1143041;-78
2024/02/24 21:13:51;;;;;;;21.90;11.17;;;;;;;7.45;100.00;100074.27;5080907;56;1142975;-78
2024/02/24 21:18:56;;;;;;;24.27;11.63;;;;;;;7.44;100.00;100081.31;5098385;56;1140449;-78
2024/02/24 21:24:01;;;;;;;22.90;10.60;;;;;;;7.43;100.00;100084.89;5092250;56;1140925;-78
2024/02/24 21:29:06;;;;;;;31.87;14.40;;;;;;;7.38;100.00;100085.22;5095666;56;1140933;-79
2024/02/24 21:34:11;;;;;;;24.67;12.00;;;;;;;7.33;100.00;100098.34;5157349;55;1140865;-83
2024/02/24 21:39:17;;;;;;;22.60;12.30;;;;;;;7.24;100.00;100093.25;5218279;54;1258578;-82
2024/02/24 21:44:22;;;;;;;29.37;11.80;;;;;;;7.18;100.00;100098.11;5240255;55;1150380;-77
2024/02/24 21:49:29;;;;;;;35.65;16.00;;;;;;;7.12;100.00;100098.06;5153449;55;1142876;-81
2024/02/24 21:54:33;;;;;;;28.12;12.25;;;;;;;7.10;100.00;100093.84;5225846;55;1142985;-82
2024/02/24 21:59:38;;;;;;;24.53;11.33;;;;;;;7.05;100.00;100098.95;5182110;55;1142785;-81
2024/02/24 22:04:43;;;;;;;74.40;43.10;;;;;;;7.03;100.00;100094.73;5111077;55;1140940;-79
2024/02/24 22:09:49;;;;;;;35.03;15.33;;;;;;;7.00;100.00;100096.29;5088418;55;1140816;-80
2024/02/24 22:14:55;;;;;;;20.80;10.23;;;;;;;6.97;100.00;100104.38;5280846;54;1140924;-79
2024/02/24 22:20:00;;;;;;;25.40;13.10;;;;;;;6.93;100.00;100097.65;5252118;54;1140574;-81
2024/02/24 22:25:06;;;;;;;22.97;13.30;;;;;;;6.93;100.00;100102.44;5127912;54;1143289;-81
2024/02/24 22:30:13;;;;;;;25.00;10.77;;;;;;;6.94;100.00;100101.48;5111321;54;1142925;-79
2024/02/24 22:35:18;;;;;;;19.93;10.00;;;;;;;6.95;100.00;100115.48;5189292;55;1142760;-78
2024/02/24 22:40:24;;;;;;;37.77;17.90;;;;;;;6.92;100.00;100109.95;5186250;55;1140544;-78
2024/02/24 22:45:29;;;;;;;43.40;20.93;;;;;;;6.89;100.00;100123.30;5189565;55;1146293;-80
2024/02/24 22:50:35;;;;;;;25.32;12.58;;;;;;;6.89;100.00;100123.77;5209650;55;1141197;-79
2024/02/24 22:55:42;;;;;;;25.30;9.73;;;;;;;6.85;100.00;100126.27;5189897;55;1140949;-80
2024/02/24 23:00:47;;;;;;;18.67;10.47;;;;;;;6.83;100.00;100136.04;5188981;54;1138792;-78
2024/02/24 23:05:53;;;;;;;16.80;8.73;;;;;;;6.82;100.00;100140.92;5209724;54;1142778;-81
2024/02/24 23:11:00;;;;;;;61.63;29.43;;;;;;;6.86;100.00;100143.25;5199741;54;1140721;-78